Time;durP1;ratioP1;P1;durP2;ratioP2;P2;SDS_P1;SDS_P2;PMS_P1;PMS_P2;Temp;Humidity;BMP_temperature;BMP_pressure;BME280_temperature;BME280_humidity;BME280_pressure;Samples;Min_cycle;Max_cycle;Signal;HPM_P1;HPM_P2
2022/01/29 00:01:58;;;;;;;6.77;5.80;;;;;;;;;;5085846;28;20181;-80
2022/01/29 00:04:24;;;;;;;6.60;5.63;;;;;;;;;;5086267;28;20436;-80
2022/01/29 00:06:50;;;;;;;7.60;6.30;;;;;;;;;;5100672;28;20172;-80
2022/01/29 00:09:16;;;;;;;6.10;5.53;;;;;;;;;;5090825;28;20450;-80
2022/01/29 00:11:43;;;;;;;8.52;5.60;;;;;;;;;;5087419;28;20209;-82
2022/01/29 00:14:09;;;;;;;6.75;5.28;;;;;;;;;;5099713;28;20190;-83
2022/01/29 00:16:35;;;;;;;7.70;6.05;;;;;;;;;;5082660;28;20196;-82
2022/01/29 00:19:01;;;;;;;6.40;5.60;;;;;;;;;;5088289;28;20164;-83
2022/01/29 00:21:27;;;;;;;6.22;5.10;;;;;;;;;;5089635;28;20215;-81
2022/01/29 00:23:53;;;;;;;8.80;5.53;;;;;;;;;;5089719;28;20195;-80
2022/01/29 00:26:22;;;;;;;7.20;6.28;;;;;;;;;;5089879;28;20172;-79
2022/01/29 00:28:48;;;;;;;8.95;6.60;;;;;;;;;;5083957;28;20210;-81
2022/01/29 00:31:14;;;;;;;6.55;5.75;;;;;;;;;;5084901;28;20699;-80
2022/01/29 00:33:40;;;;;;;7.57;5.70;;;;;;;;;;5089874;28;20181;-80
2022/01/29 00:36:06;;;;;;;7.10;6.38;;;;;;;;;;5088688;28;20191;-81
2022/01/29 00:38:33;;;;;;;6.82;6.03;;;;;;;;;;5089314;28;20215;-83
2022/01/29 00:40:59;;;;;;;6.82;6.13;;;;;;;;;;5096178;28;20282;-79
2022/01/29 00:43:25;;;;;;;7.32;6.25;;;;;;;;;;5092369;28;20203;-79
2022/01/29 00:45:51;;;;;;;8.73;5.30;;;;;;;;;;5087944;28;20633;-81
2022/01/29 00:48:17;;;;;;;6.95;5.65;;;;;;;;;;5088302;28;20252;-83
2022/01/29 00:50:43;;;;;;;6.75;5.75;;;;;;;;;;5089723;28;20594;-80
2022/01/29 00:53:09;;;;;;;6.50;5.43;;;;;;;;;;5098052;28;20191;-81
2022/01/29 00:55:35;;;;;;;7.43;5.13;;;;;;;;;;5084956;28;20528;-80
2022/01/29 00:58:01;;;;;;;7.57;5.95;;;;;;;;;;5101078;28;20803;-82
2022/01/29 01:00:27;;;;;;;8.77;5.85;;;;;;;;;;5087785;28;20242;-81
2022/01/29 01:02:53;;;;;;;7.40;5.90;;;;;;;;;;5087922;28;20184;-84
2022/01/29 01:05:19;;;;;;;6.63;5.88;;;;;;;;;;5089784;28;20437;-79
2022/01/29 01:07:45;;;;;;;9.13;6.57;;;;;;;;;;5086625;28;20333;-80
2022/01/29 01:10:12;;;;;;;8.95;6.15;;;;;;;;;;5091132;28;20173;-80
2022/01/29 01:12:38;;;;;;;8.05;6.72;;;;;;;;;;5090500;28;20188;-83
2022/01/29 01:15:05;;;;;;;7.70;6.40;;;;;;;;;;5092812;28;20188;-79
2022/01/29 01:17:31;;;;;;;7.30;6.55;;;;;;;;;;5091717;28;20187;-83
2022/01/29 01:19:57;;;;;;;8.60;6.10;;;;;;;;;;5090687;28;20211;-82
2022/01/29 01:22:23;;;;;;;7.45;5.82;;;;;;;;;;5087765;28;20180;-82
2022/01/29 01:24:49;;;;;;;7.85;6.85;;;;;;;;;;5091549;28;20178;-79
2022/01/29 01:27:15;;;;;;;13.63;6.95;;;;;;;;;;5092790;28;20203;-80
2022/01/29 01:29:41;;;;;;;8.38;6.80;;;;;;;;;;5091286;28;20187;-83
2022/01/29 01:32:11;;;;;;;7.63;6.43;;;;;;;;;;5090141;28;20270;-82
2022/01/29 01:34:41;;;;;;;7.35;6.28;;;;;;;;;;5101488;28;20198;-81
2022/01/29 01:37:12;;;;;;;9.40;6.90;;;;;;;;;;5100346;28;20200;-83
2022/01/29 01:39:40;;;;;;;10.18;6.75;;;;;;;;;;5071064;28;20196;-79
2022/01/29 01:42:07;;;;;;;7.30;6.00;;;;;;;;;;5055216;28;20723;-79
2022/01/29 01:44:38;;;;;;;8.70;5.88;;;;;;;;;;5055776;28;20188;-81
2022/01/29 01:47:04;;;;;;;7.90;7.10;;;;;;;;;;5053176;28;20192;-80
2022/01/29 01:49:30;;;;;;;7.88;6.05;;;;;;;;;;5049900;28;20196;-79
2022/01/29 01:51:56;;;;;;;9.73;7.07;;;;;;;;;;5065990;28;20242;-80
2022/01/29 01:54:22;;;;;;;9.82;6.90;;;;;;;;;;5057852;28;20189;-81
2022/01/29 01:56:48;;;;;;;8.23;7.15;;;;;;;;;;5070594;28;20184;-81
2022/01/29 01:59:14;;;;;;;11.33;7.70;;;;;;;;;;5055506;28;20657;-81
2022/01/29 02:01:40;;;;;;;9.95;6.10;;;;;;;;;;5066023;28;20474;-81
2022/01/29 02:04:06;;;;;;;10.48;6.75;;;;;;;;;;5064305;28;20181;-78
2022/01/29 02:06:32;;;;;;;13.13;7.22;;;;;;;;;;5072124;28;20177;-79
2022/01/29 02:09:00;;;;;;;11.02;7.63;;;;;;;;;;5055170;28;20192;-83
2022/01/29 02:11:26;;;;;;;10.32;7.25;;;;;;;;;;5069794;28;20180;-80
2022/01/29 02:13:55;;;;;;;10.35;7.68;;;;;;;;;;5049848;28;20220;-81
2022/01/29 02:16:21;;;;;;;8.82;6.57;;;;;;;;;;5068131;28;20176;-82
2022/01/29 02:18:47;;;;;;;11.73;8.40;;;;;;;;;;5054078;28;20573;-83
2022/01/29 02:21:14;;;;;;;8.68;6.88;;;;;;;;;;5054610;28;20216;-81
2022/01/29 02:23:40;;;;;;;10.32;8.57;;;;;;;;;;5052856;28;20248;-82
2022/01/29 02:26:06;;;;;;;7.90;6.30;;;;;;;;;;5059572;28;20191;-81
2022/01/29 02:28:32;;;;;;;10.98;7.15;;;;;;;;;;5068293;28;20414;-82
2022/01/29 02:31:03;;;;;;;10.20;7.22;;;;;;;;;;5070869;28;20204;-86
2022/01/29 02:33:34;;;;;;;10.15;7.55;;;;;;;;;;5076997;28;20177;-81
2022/01/29 02:36:00;;;;;;;13.40;7.05;;;;;;;;;;5054143;28;20181;-81
2022/01/29 02:38:27;;;;;;;11.60;8.10;;;;;;;;;;5079588;28;20312;-82
2022/01/29 02:40:58;;;;;;;8.88;6.35;;;;;;;;;;5087394;28;20224;-82
2022/01/29 02:43:27;;;;;;;8.80;6.90;;;;;;;;;;5084969;28;20309;-83
2022/01/29 02:45:54;;;;;;;11.85;9.00;;;;;;;;;;5088363;28;20225;-82
2022/01/29 02:48:20;;;;;;;10.35;7.57;;;;;;;;;;5097192;28;20245;-82
2022/01/29 02:50:47;;;;;;;10.77;6.70;;;;;;;;;;5103480;28;20188;-84
2022/01/29 02:53:13;;;;;;;10.90;6.85;;;;;;;;;;5099581;28;20184;-81
2022/01/29 02:55:40;;;;;;;8.70;6.10;;;;;;;;;;5084536;28;20198;-86
2022/01/29 02:58:06;;;;;;;12.10;8.18;;;;;;;;;;5101322;28;20168;-81
2022/01/29 03:00:32;;;;;;;9.85;7.75;;;;;;;;;;5089498;28;20215;-83
2022/01/29 03:02:58;;;;;;;8.07;6.68;;;;;;;;;;5088996;28;20192;-85
2022/01/29 03:05:24;;;;;;;12.20;8.32;;;;;;;;;;5091202;28;20186;-81
2022/01/29 03:07:50;;;;;;;8.35;6.60;;;;;;;;;;5095797;28;20177;-85
2022/01/29 03:10:16;;;;;;;11.30;7.43;;;;;;;;;;5086137;28;20167;-85
2022/01/29 03:12:42;;;;;;;10.45;7.18;;;;;;;;;;5097900;28;20176;-86
2022/01/29 03:15:09;;;;;;;8.05;5.88;;;;;;;;;;5087385;28;20556;-85
2022/01/29 03:17:35;;;;;;;11.63;7.82;;;;;;;;;;5096241;28;20241;-82
2022/01/29 03:20:01;;;;;;;10.52;6.57;;;;;;;;;;5089743;28;20544;-84
2022/01/29 03:22:27;;;;;;;13.27;8.23;;;;;;;;;;5085120;28;20173;-83
2022/01/29 03:24:53;;;;;;;13.93;9.17;;;;;;;;;;5088603;28;20580;-85
2022/01/29 03:27:19;;;;;;;12.17;7.40;;;;;;;;;;5089304;28;20431;-82
2022/01/29 03:29:45;;;;;;;14.40;8.65;;;;;;;;;;5089027;28;20440;-86
2022/01/29 03:32:11;;;;;;;11.10;8.70;;;;;;;;;;5099343;28;20176;-85
2022/01/29 03:34:37;;;;;;;12.03;8.03;;;;;;;;;;5084887;28;20662;-84
2022/01/29 03:37:04;;;;;;;11.65;9.25;;;;;;;;;;5095756;28;20490;-84
2022/01/29 03:39:31;;;;;;;9.50;7.45;;;;;;;;;;5053996;28;20210;-82
2022/01/29 03:42:02;;;;;;;10.15;8.25;;;;;;;;;;5054222;28;20735;-82
2022/01/29 03:44:29;;;;;;;11.80;7.82;;;;;;;;;;5053807;28;20184;-85
2022/01/29 03:46:55;;;;;;;9.90;6.95;;;;;;;;;;5048681;28;20186;-84
2022/01/29 03:49:21;;;;;;;10.30;7.70;;;;;;;;;;5048124;28;20176;-83
2022/01/29 03:51:47;;;;;;;10.73;8.27;;;;;;;;;;5053214;28;20232;-82
2022/01/29 03:54:13;;;;;;;8.77;6.97;;;;;;;;;;5052646;28;20597;-83
2022/01/29 03:56:39;;;;;;;9.05;6.95;;;;;;;;;;5069180;28;20192;-84
2022/01/29 03:59:05;;;;;;;10.20;7.60;;;;;;;;;;5052067;28;20290;-83
2022/01/29 04:01:31;;;;;;;8.90;6.90;;;;;;;;;;5047443;28;20196;-84
2022/01/29 04:03:57;;;;;;;11.57;8.10;;;;;;;;;;5064072;28;20215;-83
2022/01/29 04:06:24;;;;;;;14.20;7.72;;;;;;;;;;5053973;28;20181;-82
2022/01/29 04:08:50;;;;;;;9.50;8.30;;;;;;;;;;5053162;28;20184;-86
2022/01/29 04:11:16;;;;;;;8.80;7.83;;;;;;;;;;5070079;28;20264;-80
2022/01/29 04:13:45;;;;;;;11.35;7.75;;;;;;;;;;5046830;28;20446;-81
2022/01/29 04:16:11;;;;;;;10.20;8.75;;;;;;;;;;5061267;28;20168;-87
2022/01/29 04:18:37;;;;;;;10.82;8.00;;;;;;;;;;5061806;28;20222;-83
2022/01/29 04:21:04;;;;;;;8.57;6.35;;;;;;;;;;5059506;28;20208;-85
2022/01/29 04:23:30;;;;;;;10.27;6.68;;;;;;;;;;5052202;28;20180;-83
2022/01/29 04:25:57;;;;;;;11.52;6.70;;;;;;;;;;5049509;28;20184;-83
2022/01/29 04:28:28;;;;;;;9.77;7.22;;;;;;;;;;5047300;28;20195;-85
2022/01/29 04:30:59;;;;;;;9.38;6.63;;;;;;;;;;5058702;28;20169;-83
2022/01/29 04:33:28;;;;;;;10.13;8.52;;;;;;;;;;5049878;28;20200;-85
2022/01/29 04:35:55;;;;;;;7.60;6.15;;;;;;;;;;5052728;28;20199;-86
2022/01/29 04:38:21;;;;;;;7.88;6.43;;;;;;;;;;5076780;28;20226;-83
2022/01/29 04:40:47;;;;;;;9.73;7.78;;;;;;;;;;5086407;28;20207;-82
2022/01/29 04:43:13;;;;;;;9.60;7.10;;;;;;;;;;5089169;28;20176;-84
2022/01/29 04:45:40;;;;;;;9.70;7.18;;;;;;;;;;5092392;28;20633;-78
2022/01/29 04:48:06;;;;;;;9.45;7.00;;;;;;;;;;5092368;28;20188;-83
2022/01/29 04:50:32;;;;;;;6.90;6.15;;;;;;;;;;5091167;28;20190;-79
2022/01/29 04:52:58;;;;;;;7.15;5.72;;;;;;;;;;5104646;28;20203;-84
2022/01/29 04:55:24;;;;;;;7.83;6.57;;;;;;;;;;5088170;28;20209;-83
2022/01/29 04:57:50;;;;;;;10.82;6.80;;;;;;;;;;5099657;28;20424;-85
2022/01/29 05:00:20;;;;;;;9.85;7.10;;;;;;;;;;5093401;28;20219;-83
2022/01/29 05:02:49;;;;;;;8.43;6.05;;;;;;;;;;5091466;28;20221;-82
2022/01/29 05:05:15;;;;;;;9.25;6.60;;;;;;;;;;5092786;28;20240;-82
2022/01/29 05:07:41;;;;;;;8.40;7.05;;;;;;;;;;5086466;28;20183;-84
2022/01/29 05:10:07;;;;;;;10.80;8.07;;;;;;;;;;5105678;28;20210;-85
2022/01/29 05:12:59;;;;;;;9.68;6.53;;;;;;;;;;5091171;28;20434;-83
2022/01/29 05:29:04;;;;;;;8.55;6.80;;;;;;;;;;5091003;28;20190;-81
2022/01/29 05:31:30;;;;;;;10.38;7.35;;;;;;;;;;5087148;28;20183;-82
2022/01/29 05:33:57;;;;;;;9.00;7.03;;;;;;;;;;5090706;28;20184;-83
2022/01/29 05:36:23;;;;;;;7.28;6.32;;;;;;;;;;5092952;28;20224;-82
2022/01/29 05:38:49;;;;;;;9.57;6.10;;;;;;;;;;5091003;28;20224;-82
2022/01/29 05:41:15;;;;;;;10.55;6.90;;;;;;;;;;5076279;28;20543;-82
2022/01/29 05:43:43;;;;;;;8.60;6.63;;;;;;;;;;5067428;28;20263;-83
2022/01/29 05:46:09;;;;;;;8.02;7.15;;;;;;;;;;5083516;28;20172;-80
2022/01/29 05:48:35;;;;;;;9.85;6.43;;;;;;;;;;5091034;28;20263;-82
2022/01/29 05:51:01;;;;;;;6.90;5.90;;;;;;;;;;5078914;28;20180;-82
2022/01/29 05:53:27;;;;;;;6.93;5.55;;;;;;;;;;5071453;28;20194;-82
2022/01/29 05:55:53;;;;;;;8.77;7.55;;;;;;;;;;5072926;28;20179;-81
2022/01/29 05:58:19;;;;;;;12.30;6.40;;;;;;;;;;5070068;28;20175;-83
2022/01/29 06:00:45;;;;;;;7.03;6.18;;;;;;;;;;5091152;28;20722;-83
2022/01/29 06:03:11;;;;;;;8.05;6.55;;;;;;;;;;5074791;28;20181;-82
2022/01/29 06:05:37;;;;;;;8.15;5.78;;;;;;;;;;5075417;28;20180;-82
2022/01/29 06:08:04;;;;;;;9.52;5.47;;;;;;;;;;5073727;28;20255;-81
2022/01/29 06:10:31;;;;;;;9.55;7.60;;;;;;;;;;5070348;28;20167;-80
2022/01/29 06:13:03;;;;;;;6.60;5.50;;;;;;;;;;5085944;28;20523;-81
2022/01/29 06:15:30;;;;;;;6.80;6.18;;;;;;;;;;5073243;28;20184;-83
2022/01/29 06:17:58;;;;;;;7.35;5.93;;;;;;;;;;5092570;28;20188;-82
2022/01/29 06:20:24;;;;;;;7.07;6.38;;;;;;;;;;5074025;28;20208;-83
2022/01/29 06:22:50;;;;;;;10.38;7.35;;;;;;;;;;5086729;28;20181;-82
2022/01/29 06:25:16;;;;;;;6.75;5.65;;;;;;;;;;5088212;28;20187;-82
2022/01/29 06:27:42;;;;;;;7.82;6.20;;;;;;;;;;5085678;28;20549;-82
2022/01/29 06:30:08;;;;;;;6.93;6.22;;;;;;;;;;5094389;28;20184;-84
2022/01/29 06:32:34;;;;;;;6.30;5.50;;;;;;;;;;5076258;28;20180;-83
2022/01/29 06:34:59;;;;;;;6.40;4.87;;;;;;;;;;5083117;28;20219;-81
2022/01/29 06:37:25;;;;;;;6.37;5.23;;;;;;;;;;5087735;28;20505;-81
2022/01/29 06:39:52;;;;;;;7.50;5.40;;;;;;;;;;5089248;28;20537;-84
2022/01/29 06:42:17;;;;;;;7.03;5.03;;;;;;;;;;5091341;28;20828;-82
2022/01/29 06:44:43;;;;;;;7.05;6.35;;;;;;;;;;5089526;28;20203;-82
2022/01/29 06:47:09;;;;;;;7.28;5.10;;;;;;;;;;5073132;28;20178;-81
2022/01/29 06:49:35;;;;;;;5.23;4.70;;;;;;;;;;5067946;28;20246;-85
2022/01/29 06:52:01;;;;;;;6.63;5.53;;;;;;;;;;5085577;28;20437;-82
2022/01/29 06:54:27;;;;;;;5.10;4.65;;;;;;;;;;5092456;28;20447;-82
2022/01/29 06:56:53;;;;;;;5.90;4.28;;;;;;;;;;5074958;28;20220;-84
2022/01/29 06:59:19;;;;;;;6.85;5.47;;;;;;;;;;5074242;28;20226;-83
2022/01/29 07:01:45;;;;;;;4.80;4.20;;;;;;;;;;5067482;28;20204;-85
2022/01/29 07:04:11;;;;;;;6.05;5.25;;;;;;;;;;5085314;28;20447;-86
2022/01/29 07:06:37;;;;;;;4.90;4.25;;;;;;;;;;5076720;28;20207;-85
2022/01/29 07:09:04;;;;;;;7.40;5.13;;;;;;;;;;5097215;28;20241;-82
2022/01/29 07:11:30;;;;;;;5.13;3.75;;;;;;;;;;5099409;28;20433;-86
2022/01/29 07:14:03;;;;;;;6.40;4.38;;;;;;;;;;5085891;28;20192;-83
2022/01/29 07:16:33;;;;;;;4.57;4.18;;;;;;;;;;5073171;28;20177;-80
2022/01/29 07:18:59;;;;;;;6.00;5.18;;;;;;;;;;5089435;28;20165;-81
2022/01/29 07:21:25;;;;;;;5.30;4.80;;;;;;;;;;5083090;28;20568;-86
2022/01/29 07:23:51;;;;;;;5.30;4.10;;;;;;;;;;5076664;28;20499;-85
2022/01/29 07:26:17;;;;;;;4.55;4.10;;;;;;;;;;5072000;28;20176;-81
2022/01/29 07:28:43;;;;;;;4.07;3.67;;;;;;;;;;5082901;28;20180;-86
2022/01/29 07:31:09;;;;;;;4.10;3.67;;;;;;;;;;5081783;28;20399;-86
2022/01/29 07:33:35;;;;;;;4.85;3.70;;;;;;;;;;5071836;28;20201;-80
2022/01/29 07:36:01;;;;;;;4.18;3.20;;;;;;;;;;5075719;28;20345;-81
2022/01/29 07:38:27;;;;;;;5.03;3.65;;;;;;;;;;5084916;28;20222;-86
2022/01/29 07:40:53;;;;;;;4.47;3.42;;;;;;;;;;5086295;28;20267;-83
2022/01/29 07:43:21;;;;;;;8.00;4.22;;;;;;;;;;5097781;28;20223;-84
2022/01/29 07:45:46;;;;;;;4.80;4.10;;;;;;;;;;5088004;28;20184;-83
2022/01/29 07:48:12;;;;;;;3.77;3.40;;;;;;;;;;5088934;28;20498;-82
2022/01/29 07:50:38;;;;;;;3.90;3.20;;;;;;;;;;5090522;28;20561;-84
2022/01/29 07:53:04;;;;;;;4.10;3.38;;;;;;;;;;5086983;28;20634;-83
2022/01/29 07:55:31;;;;;;;4.65;3.40;;;;;;;;;;5084774;28;20188;-80
2022/01/29 07:57:57;;;;;;;4.05;3.70;;;;;;;;;;5088395;28;20219;-82
2022/01/29 08:00:23;;;;;;;4.05;3.40;;;;;;;;;;5093983;28;20230;-86
2022/01/29 08:02:49;;;;;;;3.60;3.30;;;;;;;;;;5094685;28;20176;-81
2022/01/29 08:05:15;;;;;;;3.90;3.22;;;;;;;;;;5084079;28;20180;-82
2022/01/29 08:07:41;;;;;;;3.97;3.17;;;;;;;;;;5099660;28;20224;-86
2022/01/29 08:10:07;;;;;;;3.77;3.07;;;;;;;;;;5089323;28;20930;-85
2022/01/29 08:12:34;;;;;;;3.95;3.20;;;;;;;;;;5087959;28;20492;-85
2022/01/29 08:15:00;;;;;;;4.82;3.35;;;;;;;;;;5088589;28;20199;-86
2022/01/29 08:17:26;;;;;;;3.05;2.65;;;;;;;;;;5086921;28;20272;-83
2022/01/29 08:19:52;;;;;;;3.88;2.97;;;;;;;;;;5096344;28;20172;-82
2022/01/29 08:22:18;;;;;;;4.53;3.10;;;;;;;;;;5084493;28;20208;-85
2022/01/29 08:24:44;;;;;;;3.08;2.78;;;;;;;;;;5091031;28;20176;-80
2022/01/29 08:27:19;;;;;;;4.13;2.90;;;;;;;;;;5091704;28;20656;-87
2022/01/29 08:29:45;;;;;;;3.80;3.00;;;;;;;;;;5094303;28;20441;-89
2022/01/29 08:32:11;;;;;;;3.90;3.23;;;;;;;;;;5088452;28;20209;-88
2022/01/29 08:34:39;;;;;;;5.72;3.20;;;;;;;;;;5086723;28;20480;-88
2022/01/29 08:37:05;;;;;;;5.18;3.53;;;;;;;;;;5094269;28;20235;-87
2022/01/29 08:39:32;;;;;;;5.40;3.40;;;;;;;;;;5054116;28;20181;-87
2022/01/29 08:41:58;;;;;;;3.70;3.15;;;;;;;;;;5054030;28;20215;-85
2022/01/29 08:44:24;;;;;;;4.75;3.13;;;;;;;;;;5059432;28;20184;-86
2022/01/29 08:46:50;;;;;;;3.92;3.25;;;;;;;;;;5053905;28;20268;-90
2022/01/29 08:49:16;;;;;;;4.20;3.30;;;;;;;;;;5048427;28;20570;-84
2022/01/29 08:51:42;;;;;;;3.97;3.20;;;;;;;;;;5051823;28;20200;-85
2022/01/29 08:54:08;;;;;;;3.93;3.63;;;;;;;;;;5055496;28;20265;-88
2022/01/29 08:56:34;;;;;;;3.08;2.78;;;;;;;;;;5060127;28;20437;-84
2022/01/29 08:59:00;;;;;;;4.90;3.15;;;;;;;;;;5081121;28;20263;-86
2022/01/29 09:01:28;;;;;;;3.40;3.10;;;;;;;;;;5073347;28;20223;-90
2022/01/29 09:03:54;;;;;;;3.65;3.03;;;;;;;;;;5053407;28;20244;-83
2022/01/29 09:06:21;;;;;;;3.67;3.38;;;;;;;;;;5057987;28;20255;-82
2022/01/29 09:08:51;;;;;;;3.53;3.22;;;;;;;;;;5071949;28;20191;-83
2022/01/29 09:11:17;;;;;;;5.00;3.80;;;;;;;;;;5065436;28;20244;-87
2022/01/29 09:13:44;;;;;;;4.40;4.00;;;;;;;;;;5060729;28;20212;-88
2022/01/29 09:16:10;;;;;;;5.25;3.88;;;;;;;;;;5060666;28;20555;-89
2022/01/29 09:18:36;;;;;;;3.58;3.22;;;;;;;;;;5074690;28;20193;-85
2022/01/29 09:21:02;;;;;;;7.10;3.80;;;;;;;;;;5058002;28;20268;-86
2022/01/29 09:23:28;;;;;;;4.07;3.30;;;;;;;;;;5058289;28;20177;-89
2022/01/29 09:25:55;;;;;;;4.63;3.70;;;;;;;;;;5047873;28;20253;-81
2022/01/29 09:28:21;;;;;;;6.45;4.00;;;;;;;;;;5051185;28;20469;-89
2022/01/29 09:30:48;;;;;;;5.53;3.53;;;;;;;;;;5056024;28;20169;-85
2022/01/29 09:33:15;;;;;;;4.28;3.70;;;;;;;;;;5053335;28;20252;-85
2022/01/29 09:35:41;;;;;;;5.90;4.50;;;;;;;;;;5074609;28;20219;-88
2022/01/29 09:38:08;;;;;;;4.75;4.13;;;;;;;;;;5083509;28;20247;-84
2022/01/29 09:40:35;;;;;;;4.30;3.45;;;;;;;;;;5090641;28;20791;-90
2022/01/29 09:43:02;;;;;;;6.40;4.00;;;;;;;;;;5103534;28;20176;-90
2022/01/29 09:45:28;;;;;;;5.90;4.15;;;;;;;;;;5091974;28;20183;-85
2022/01/29 09:48:04;;;;;;;4.25;3.35;;;;;;;;;;5096175;28;20187;-87
2022/01/29 09:50:31;;;;;;;3.92;3.53;;;;;;;;;;5099313;28;20199;-86
2022/01/29 09:52:57;;;;;;;2.97;2.67;;;;;;;;;;5103097;28;20237;-86
2022/01/29 09:55:24;;;;;;;4.32;3.10;;;;;;;;;;5103137;28;20219;-86
2022/01/29 09:57:50;;;;;;;3.80;3.50;;;;;;;;;;5105552;28;20179;-86
2022/01/29 10:00:16;;;;;;;3.47;2.90;;;;;;;;;;5099844;28;20195;-87
2022/01/29 10:02:43;;;;;;;3.58;2.47;;;;;;;;;;5101967;28;20191;-86
2022/01/29 10:05:12;;;;;;;3.70;2.60;;;;;;;;;;5101818;28;20243;-91
2022/01/29 10:07:38;;;;;;;2.92;2.58;;;;;;;;;;5100403;28;20176;-89
2022/01/29 10:10:16;;;;;;;2.35;2.15;;;;;;;;;;5091216;28;20182;-85
2022/01/29 10:12:42;;;;;;;2.85;2.55;;;;;;;;;;5103615;28;20191;-86
2022/01/29 10:15:08;;;;;;;3.43;3.10;;;;;;;;;;5097591;28;20192;-85
2022/01/29 10:17:40;;;;;;;4.13;2.70;;;;;;;;;;5101111;28;20446;-88
2022/01/29 10:20:10;;;;;;;2.75;2.45;;;;;;;;;;5101915;28;20191;-88
2022/01/29 10:22:37;;;;;;;3.80;2.13;;;;;;;;;;5099911;28;20696;-88
2022/01/29 10:25:07;;;;;;;2.83;2.25;;;;;;;;;;5099169;28;20212;-88
2022/01/29 10:27:33;;;;;;;2.88;2.42;;;;;;;;;;5095252;28;20176;-87
2022/01/29 10:30:00;;;;;;;2.60;2.40;;;;;;;;;;5098580;28;20634;-86
2022/01/29 10:32:28;;;;;;;2.30;1.90;;;;;;;;;;5100113;28;20192;-89
2022/01/29 10:34:55;;;;;;;3.17;2.88;;;;;;;;;;5095305;28;20165;-90
2022/01/29 10:37:23;;;;;;;2.40;2.00;;;;;;;;;;5097413;28;20240;-88
2022/01/29 10:39:53;;;;;;;2.05;1.95;;;;;;;;;;5098710;28;20184;-90
2022/01/29 10:42:24;;;;;;;2.47;1.50;;;;;;;;;;5089618;28;20180;-84
2022/01/29 10:45:02;;;;;;;2.10;1.88;;;;;;;;;;5090548;28;20259;-86
2022/01/29 10:47:29;;;;;;;2.05;1.95;;;;;;;;;;5095563;28;20176;-86
2022/01/29 10:49:56;;;;;;;1.65;1.55;;;;;;;;;;5102225;28;20203;-85
2022/01/29 10:52:26;;;;;;;2.33;2.13;;;;;;;;;;5087691;28;20177;-86
2022/01/29 10:54:59;;;;;;;2.88;1.60;;;;;;;;;;5098519;28;20691;-87
2022/01/29 10:57:30;;;;;;;1.42;1.10;;;;;;;;;;5091439;28;20255;-89
2022/01/29 10:59:56;;;;;;;2.10;1.90;;;;;;;;;;5114551;28;20192;-88
2022/01/29 11:02:29;;;;;;;1.73;1.63;;;;;;;;;;5095738;28;20176;-85
2022/01/29 11:04:55;;;;;;;2.78;1.73;;;;;;;;;;5088224;28;20247;-91
2022/01/29 11:07:27;;;;;;;2.60;2.40;;;;;;;;;;5085963;28;20652;-91
2022/01/29 11:09:56;;;;;;;3.13;2.80;;;;;;;;;;5096800;28;20221;-94
2022/01/29 11:12:23;;;;;;;2.47;2.28;;;;;;;;;;5097330;28;20180;-92
2022/01/29 11:14:49;;;;;;;3.85;2.20;;;;;;;;;;5091290;28;20190;-87
2022/01/29 11:17:16;;;;;;;1.50;1.40;;;;;;;;;;5091163;28;20203;-89
2022/01/29 11:19:42;;;;;;;1.70;1.60;;;;;;;;;;5097448;28;20187;-92
2022/01/29 11:22:12;;;;;;;2.10;2.00;;;;;;;;;;5099892;28;20419;-87
2022/01/29 11:24:39;;;;;;;2.60;1.73;;;;;;;;;;5087831;28;20184;-92
2022/01/29 11:27:22;;;;;;;1.85;1.75;;;;;;;;;;5092939;28;20172;-84
2022/01/29 11:30:02;;;;;;;2.03;1.75;;;;;;;;;;5100832;28;20647;-86
2022/01/29 11:32:33;;;;;;;4.05;2.88;;;;;;;;;;5100780;28;20199;-88
2022/01/29 11:35:00;;;;;;;2.00;1.50;;;;;;;;;;5099130;28;20540;-87
2022/01/29 11:37:46;;;;;;;2.35;1.48;;;;;;;;;;5100864;28;20310;-88
2022/01/29 11:40:36;;;;;;;1.45;1.30;;;;;;;;;;5106914;28;20192;-87
2022/01/29 11:43:14;;;;;;;1.60;1.50;;;;;;;;;;5096046;28;20176;-88
2022/01/29 11:45:46;;;;;;;1.77;1.30;;;;;;;;;;5099582;28;20183;-87
2022/01/29 11:48:29;;;;;;;2.15;1.95;;;;;;;;;;5092278;28;20272;-88
2022/01/29 11:50:59;;;;;;;1.90;1.10;;;;;;;;;;5090074;28;20198;-89
2022/01/29 11:53:26;;;;;;;1.00;0.90;;;;;;;;;;5089767;28;20195;-88
2022/01/29 11:55:56;;;;;;;1.60;0.85;;;;;;;;;;5085038;28;20183;-88
2022/01/29 11:58:26;;;;;;;1.60;1.10;;;;;;;;;;5096664;28;20201;-90
2022/01/29 12:00:56;;;;;;;1.42;1.20;;;;;;;;;;5090729;28;20652;-85
2022/01/29 12:03:39;;;;;;;2.25;0.90;;;;;;;;;;5097243;28;20180;-86
2022/01/29 12:06:22;;;;;;;1.58;0.90;;;;;;;;;;5092440;28;20179;-87
2022/01/29 12:09:07;;;;;;;4.30;1.10;;;;;;;;;;5094463;28;20208;-81
2022/01/29 12:11:39;;;;;;;2.28;1.80;;;;;;;;;;5101832;28;20699;-87
2022/01/29 12:14:14;;;;;;;1.77;1.50;;;;;;;;;;5095377;28;20196;-87
2022/01/29 12:16:49;;;;;;;2.20;1.40;;;;;;;;;;5083868;28;20295;-87
2022/01/29 12:19:33;;;;;;;1.75;1.30;;;;;;;;;;5100488;28;20179;-89
2022/01/29 12:22:00;;;;;;;1.30;1.02;;;;;;;;;;5098290;28;20199;-90
2022/01/29 12:24:26;;;;;;;1.58;0.85;;;;;;;;;;5092275;28;20216;-87
2022/01/29 12:26:56;;;;;;;0.90;0.90;;;;;;;;;;5088163;28;20199;-88
2022/01/29 12:29:23;;;;;;;1.20;0.95;;;;;;;;;;5090844;28;20201;-91
2022/01/29 12:31:57;;;;;;;1.00;0.90;;;;;;;;;;5086473;28;20198;-82
2022/01/29 12:34:24;;;;;;;1.88;1.10;;;;;;;;;;5098184;28;20180;-88
2022/01/29 12:36:50;;;;;;;2.60;2.40;;;;;;;;;;5099794;28;20249;-81
2022/01/29 12:39:23;;;;;;;1.20;1.10;;;;;;;;;;5056854;28;20240;-87
2022/01/29 12:42:06;;;;;;;2.35;0.90;;;;;;;;;;5054516;28;20538;-90
2022/01/29 12:44:32;;;;;;;4.55;4.15;;;;;;;;;;5070152;28;20248;-89
2022/01/29 12:46:58;;;;;;;1.40;1.30;;;;;;;;;;5053310;28;20180;-89
2022/01/29 12:49:24;;;;;;;0.97;0.80;;;;;;;;;;5050474;28;20173;-86
2022/01/29 12:51:55;;;;;;;1.33;1.23;;;;;;;;;;5066728;28;20418;-88
2022/01/29 12:54:21;;;;;;;0.90;0.90;;;;;;;;;;5055516;28;20443;-85
2022/01/29 12:56:47;;;;;;;1.40;1.20;;;;;;;;;;5073040;28;20188;-91
2022/01/29 12:59:14;;;;;;;2.10;1.20;;;;;;;;;;5064426;28;20216;-87
2022/01/29 13:01:42;;;;;;;1.17;1.00;;;;;;;;;;5055055;28;20230;-89
2022/01/29 13:04:17;;;;;;;2.78;2.58;;;;;;;;;;5066194;28;20180;-89
2022/01/29 13:06:43;;;;;;;1.60;1.50;;;;;;;;;;5069815;28;20180;-91
2022/01/29 13:09:17;;;;;;;2.90;2.63;;;;;;;;;;5057999;28;20211;-90
2022/01/29 13:11:43;;;;;;;1.40;1.30;;;;;;;;;;5056517;28;20188;-91
2022/01/29 13:14:20;;;;;;;1.50;1.33;;;;;;;;;;5055438;28;20264;-88
2022/01/29 13:16:47;;;;;;;1.40;1.23;;;;;;;;;;5058229;28;20204;-83
2022/01/29 13:19:15;;;;;;;2.85;2.40;;;;;;;;;;5074388;28;20172;-84
2022/01/29 13:21:41;;;;;;;1.30;1.20;;;;;;;;;;5062571;28;20201;-83
2022/01/29 13:24:26;;;;;;;2.20;1.50;;;;;;;;;;5057296;28;20185;-86
2022/01/29 13:27:19;;;;;;;2.45;1.65;;;;;;;;;;5056263;28;20196;-88
2022/01/29 13:30:26;;;;;;;1.45;1.35;;;;;;;;;;4963536;28;20279;-85
2022/01/29 13:32:53;;;;;;;1.23;1.10;;;;;;;;;;4967955;28;20184;-86
2022/01/29 13:35:21;;;;;;;1.90;1.80;;;;;;;;;;4984005;28;20200;-89
2022/01/29 13:37:48;;;;;;;1.77;1.67;;;;;;;;;;4973173;28;20236;-89
2022/01/29 13:40:20;;;;;;;2.63;1.92;;;;;;;;;;4983921;28;20222;-86
2022/01/29 13:42:53;;;;;;;1.33;1.20;;;;;;;;;;4953078;29;20187;-88
2022/01/29 13:45:22;;;;;;;2.55;1.25;;;;;;;;;;4981903;28;20223;-89
2022/01/29 13:48:00;;;;;;;1.20;1.10;;;;;;;;;;4966882;28;20267;-85
2022/01/29 13:50:28;;;;;;;1.38;1.27;;;;;;;;;;4976713;28;20188;-90
2022/01/29 13:52:57;;;;;;;3.08;1.20;;;;;;;;;;4976905;28;20370;-84
2022/01/29 13:55:24;;;;;;;3.85;1.65;;;;;;;;;;4981614;28;20220;-90
2022/01/29 13:58:18;;;;;;;1.40;1.30;;;;;;;;;;4984706;28;20187;-91
2022/01/29 14:00:55;;;;;;;2.67;1.52;;;;;;;;;;4960879;28;20216;-84
2022/01/29 14:03:40;;;;;;;1.42;1.10;;;;;;;;;;4965099;28;20180;-87
2022/01/29 14:06:24;;;;;;;2.65;1.20;;;;;;;;;;5010056;28;20197;-89
2022/01/29 14:09:09;;;;;;;1.60;1.50;;;;;;;;;;5069555;28;20181;-85
2022/01/29 14:11:54;;;;;;;3.63;1.40;;;;;;;;;;5055429;28;20184;-86
2022/01/29 14:14:22;;;;;;;2.28;1.20;;;;;;;;;;5064155;28;20188;-87
2022/01/29 14:16:48;;;;;;;1.50;1.38;;;;;;;;;;5057033;28;20231;-83
2022/01/29 14:19:19;;;;;;;2.05;1.77;;;;;;;;;;5081698;28;20180;-87
2022/01/29 14:21:57;;;;;;;4.10;1.33;;;;;;;;;;5062649;28;20208;-86
2022/01/29 14:24:27;;;;;;;1.40;1.13;;;;;;;;;;5070903;28;20203;-86
2022/01/29 14:27:00;;;;;;;1.70;1.60;;;;;;;;;;5052556;28;20398;-90
2022/01/29 14:29:26;;;;;;;1.23;0.88;;;;;;;;;;5057120;28;20181;-88
2022/01/29 14:31:52;;;;;;;1.95;1.75;;;;;;;;;;5066917;28;20630;-83
2022/01/29 14:34:18;;;;;;;2.17;1.20;;;;;;;;;;5056272;28;20255;-87
2022/01/29 14:36:45;;;;;;;1.20;1.00;;;;;;;;;;5065980;28;20652;-86
2022/01/29 14:39:11;;;;;;;1.63;1.15;;;;;;;;;;5058020;28;20660;-88
2022/01/29 14:41:45;;;;;;;0.90;0.90;;;;;;;;;;5051628;28;20204;-83
2022/01/29 14:44:11;;;;;;;1.20;0.93;;;;;;;;;;5064893;28;20251;-88
2022/01/29 14:46:40;;;;;;;1.30;1.10;;;;;;;;;;5046718;28;20196;-87
2022/01/29 14:49:06;;;;;;;1.00;0.90;;;;;;;;;;5062579;28;20202;-85
2022/01/29 14:51:38;;;;;;;1.90;1.40;;;;;;;;;;5051878;28;20189;-91
2022/01/29 14:54:07;;;;;;;2.70;2.28;;;;;;;;;;5054116;28;20297;-88
2022/01/29 14:56:33;;;;;;;2.00;1.20;;;;;;;;;;5066680;28;20648;-89
2022/01/29 14:59:00;;;;;;;1.70;1.23;;;;;;;;;;5058214;28;20184;-87
2022/01/29 15:01:26;;;;;;;2.63;1.88;;;;;;;;;;5049091;28;20193;-88